createdAt,value
2019-01-27T00:01:36.135Z,4.57
2019-01-27T00:04:05.390Z,4.73
2019-01-27T00:06:34.519Z,4.30
2019-01-27T00:09:05.787Z,4.43
2019-01-27T00:11:34.810Z,4.00
2019-01-27T00:14:04.055Z,3.57
2019-01-27T00:16:33.027Z,3.30
2019-01-27T00:19:01.927Z,3.73
2019-01-27T00:21:30.976Z,4.27
2019-01-27T00:23:59.928Z,3.50
2019-01-27T00:26:29.011Z,3.20
2019-01-27T00:28:58.039Z,4.40
2019-01-27T00:31:27.025Z,2.60
2019-01-27T00:33:55.962Z,2.83
2019-01-27T00:36:24.878Z,3.20
2019-01-27T00:38:53.846Z,2.50
2019-01-27T00:41:22.890Z,2.53
2019-01-27T00:43:51.918Z,2.40
2019-01-27T00:46:20.957Z,2.73
2019-01-27T00:48:49.961Z,2.60
2019-01-27T00:51:18.778Z,2.33
2019-01-27T00:53:47.754Z,2.23
2019-01-27T00:56:16.695Z,2.00
2019-01-27T00:58:45.627Z,2.97
2019-01-27T01:01:14.466Z,2.03
2019-01-27T01:03:43.502Z,2.23
2019-01-27T01:06:12.651Z,2.00
2019-01-27T01:08:42.124Z,2.10
2019-01-27T01:11:11.048Z,2.30
2019-01-27T01:13:40.145Z,2.40
2019-01-27T01:16:09.214Z,1.90
2019-01-27T01:18:38.241Z,2.10
2019-01-27T01:21:07.526Z,1.77
2019-01-27T01:23:36.478Z,1.97
2019-01-27T01:26:05.727Z,2.33
2019-01-27T01:28:34.630Z,2.20
2019-01-27T01:31:03.646Z,2.20
2019-01-27T01:33:32.656Z,2.00
2019-01-27T01:36:01.620Z,2.10
2019-01-27T01:38:30.563Z,1.63
2019-01-27T01:40:59.598Z,1.70
2019-01-27T01:43:28.638Z,1.53
2019-01-27T01:45:57.598Z,1.83
2019-01-27T01:48:26.493Z,1.53
2019-01-27T01:50:55.479Z,1.70
2019-01-27T01:53:24.306Z,1.73
2019-01-27T01:55:53.202Z,1.90
2019-01-27T01:58:22.086Z,1.57
2019-01-27T02:00:51.169Z,1.90
2019-01-27T02:03:20.107Z,1.53
2019-01-27T02:05:49.114Z,3.80
2019-01-27T02:08:18.002Z,1.80
2019-01-27T02:10:47.007Z,1.73
2019-01-27T02:13:15.934Z,1.47
2019-01-27T02:16:07.721Z,1.57
2019-01-27T02:18:37.662Z,1.60
2019-01-27T02:21:08.015Z,1.57
2019-01-27T02:23:37.199Z,1.27
2019-01-27T02:26:06.541Z,1.40
2019-01-27T02:28:35.535Z,1.60
2019-01-27T02:31:04.992Z,1.30
2019-01-27T02:33:33.863Z,1.33
2019-01-27T02:36:02.853Z,1.40
2019-01-27T02:38:31.843Z,1.30
2019-01-27T02:41:00.811Z,1.40
2019-01-27T02:43:29.870Z,1.13
2019-01-27T02:45:58.804Z,1.20
2019-01-27T02:48:27.794Z,1.20
2019-01-27T02:50:56.683Z,3.40
2019-01-27T02:53:25.556Z,1.07
2019-01-27T02:55:54.484Z,1.30
2019-01-27T02:58:23.447Z,1.10
2019-01-27T03:00:52.485Z,1.00
2019-01-27T03:03:21.422Z,1.07
2019-01-27T03:06:01.700Z,1.20
2019-01-27T03:08:35.846Z,1.40
2019-01-27T03:11:05.100Z,1.87
2019-01-27T03:13:34.159Z,1.50
2019-01-27T03:16:03.238Z,1.30
2019-01-27T03:18:32.070Z,1.40
2019-01-27T03:21:01.147Z,1.20
2019-01-27T03:23:30.042Z,0.97
2019-01-27T03:25:58.975Z,1.17
2019-01-27T03:28:27.986Z,0.67
2019-01-27T03:30:56.894Z,1.10
2019-01-27T03:33:25.833Z,1.03
2019-01-27T03:35:54.849Z,1.30
2019-01-27T03:38:23.751Z,1.10
2019-01-27T03:40:52.797Z,1.03
2019-01-27T03:43:21.895Z,1.03
2019-01-27T03:45:50.830Z,1.40
2019-01-27T03:48:19.947Z,1.60
2019-01-27T03:50:48.914Z,2.00
2019-01-27T03:53:17.847Z,2.43
2019-01-27T03:55:46.826Z,1.30
2019-01-27T03:58:15.747Z,1.63
2019-01-27T04:00:44.798Z,1.47
2019-01-27T04:03:13.676Z,1.60
2019-01-27T04:05:42.478Z,2.93
2019-01-27T04:08:11.410Z,1.60
2019-01-27T04:10:40.309Z,1.90
2019-01-27T04:13:09.306Z,1.80
2019-01-27T04:15:38.300Z,2.10
2019-01-27T04:18:07.335Z,2.27
2019-01-27T04:20:36.403Z,2.40
2019-01-27T04:23:05.421Z,2.27
2019-01-27T04:25:34.383Z,2.33
2019-01-27T04:28:03.491Z,3.20
2019-01-27T04:30:37.393Z,2.00
2019-01-27T04:33:06.304Z,2.47
2019-01-27T04:35:35.325Z,2.37
2019-01-27T04:38:04.671Z,3.00
2019-01-27T04:40:33.601Z,2.37
2019-01-27T04:43:02.662Z,1.83
2019-01-27T04:45:34.220Z,1.83
2019-01-27T04:48:03.169Z,2.10
2019-01-27T04:50:32.104Z,1.97
2019-01-27T04:53:01.091Z,1.80
2019-01-27T04:55:30.088Z,1.60
2019-01-27T04:57:58.941Z,1.70
2019-01-27T05:00:28.017Z,1.83
2019-01-27T05:03:22.155Z,1.70
2019-01-27T05:05:51.226Z,2.00
2019-01-27T05:08:20.068Z,2.57
2019-01-27T05:10:49.009Z,1.60
2019-01-27T05:13:17.918Z,1.90
2019-01-27T05:15:46.860Z,1.70
2019-01-27T05:18:15.848Z,1.67
2019-01-27T05:20:44.818Z,1.57
2019-01-27T05:23:13.887Z,1.67
2019-01-27T05:25:42.895Z,1.53
2019-01-27T05:28:11.938Z,1.50
2019-01-27T05:30:40.962Z,1.70
2019-01-27T05:33:10.043Z,1.93
2019-01-27T05:35:38.953Z,1.80
2019-01-27T05:38:07.940Z,2.70
2019-01-27T05:40:36.894Z,1.93
2019-01-27T05:43:05.818Z,1.90
2019-01-27T05:45:34.716Z,1.80
2019-01-27T05:48:03.888Z,1.60
2019-01-27T05:50:32.802Z,1.43
2019-01-27T05:53:01.778Z,1.47
2019-01-27T05:55:30.807Z,1.40
2019-01-27T05:57:59.903Z,1.73
2019-01-27T06:00:35.471Z,1.90
2019-01-27T06:03:04.655Z,1.50
2019-01-27T06:05:33.756Z,1.40
2019-01-27T06:08:02.707Z,1.20
2019-01-27T06:10:31.723Z,1.40
2019-01-27T06:13:00.796Z,1.20
2019-01-27T06:15:29.726Z,1.10
2019-01-27T06:17:58.829Z,0.80
2019-01-27T06:20:27.905Z,1.43
2019-01-27T06:22:56.929Z,1.10
2019-01-27T06:25:26.482Z,1.10
2019-01-27T06:27:55.710Z,1.47
2019-01-27T06:30:25.492Z,1.07
2019-01-27T06:33:08.590Z,1.00
2019-01-27T06:35:38.152Z,1.73
2019-01-27T06:38:07.274Z,0.90
2019-01-27T06:40:36.277Z,1.17
2019-01-27T06:43:05.317Z,1.10
2019-01-27T06:45:34.386Z,1.20
2019-01-27T06:48:03.430Z,1.20
2019-01-27T06:50:32.397Z,0.97
2019-01-27T06:53:01.426Z,1.93
2019-01-27T06:55:30.450Z,1.50
2019-01-27T06:57:59.446Z,1.30
2019-01-27T07:00:53.575Z,1.30
2019-01-27T07:03:35.570Z,1.13
2019-01-27T07:06:26.669Z,1.30
2019-01-27T07:09:29.625Z,1.27
2019-01-27T07:12:12.805Z,0.90
2019-01-27T07:15:00.864Z,0.90
2019-01-27T07:17:47.326Z,0.80
2019-01-27T07:20:26.112Z,1.13
2019-01-27T07:23:11.705Z,0.80
2019-01-27T07:25:59.804Z,1.20
2019-01-27T07:28:50.006Z,0.80
2019-01-27T07:31:40.823Z,0.93
2019-01-27T07:34:43.860Z,1.10
2019-01-27T07:37:35.400Z,1.73
2019-01-27T07:40:11.929Z,1.67
2019-01-27T07:42:57.539Z,0.70
2019-01-27T07:45:39.937Z,1.37
2019-01-27T07:48:14.050Z,2.00
2019-01-27T07:51:00.124Z,1.33
2019-01-27T07:53:42.904Z,1.10
2019-01-27T07:56:31.059Z,1.23
2019-01-27T07:59:17.586Z,0.87
2019-01-27T08:02:02.898Z,0.70
2019-01-27T08:04:44.001Z,2.40
2019-01-27T08:07:27.802Z,0.90
2019-01-27T08:10:06.971Z,0.57
2019-01-27T08:12:44.275Z,0.70
2019-01-27T08:15:22.226Z,0.90
2019-01-27T08:17:58.920Z,2.20
2019-01-27T08:20:34.985Z,1.00
2019-01-27T08:23:21.578Z,0.80
2019-01-27T08:26:27.552Z,0.73
2019-01-27T08:29:04.511Z,1.03
2019-01-27T08:31:52.675Z,1.07
2019-01-27T08:34:30.035Z,1.03
2019-01-27T08:37:06.811Z,1.00
2019-01-27T08:39:41.522Z,0.90
2019-01-27T08:42:26.310Z,0.90
2019-01-27T08:45:04.814Z,0.60
2019-01-27T08:47:33.875Z,0.70
2019-01-27T08:50:02.780Z,0.80
2019-01-27T08:52:31.677Z,0.90
2019-01-27T08:55:00.698Z,0.80
2019-01-27T08:57:29.752Z,0.90
2019-01-27T08:59:58.732Z,1.20
2019-01-27T09:02:44.139Z,1.97
2019-01-27T09:05:19.165Z,0.80
2019-01-27T09:08:16.356Z,0.80
2019-01-27T09:11:02.824Z,0.80
2019-01-27T09:13:50.916Z,0.90
2019-01-27T09:16:44.293Z,0.70
2019-01-27T09:19:30.714Z,0.60
2019-01-27T09:22:18.787Z,0.50
2019-01-27T09:25:05.567Z,0.73
2019-01-27T09:27:39.919Z,1.07
2019-01-27T09:30:20.538Z,1.10
2019-01-27T09:33:01.563Z,0.90
2019-01-27T09:35:54.563Z,0.63
2019-01-27T09:38:34.136Z,0.70
2019-01-27T09:41:25.178Z,0.67
2019-01-27T09:44:11.582Z,0.80
2019-01-27T09:47:00.657Z,1.40
2019-01-27T09:49:36.665Z,0.70
2019-01-27T09:52:17.006Z,0.90
2019-01-27T09:55:11.087Z,0.83
2019-01-27T09:57:55.510Z,0.63
2019-01-27T10:00:42.348Z,1.80
2019-01-27T10:03:20.923Z,1.03
2019-01-27T10:06:06.809Z,1.80
2019-01-27T10:09:00.778Z,1.10
2019-01-27T10:11:46.651Z,0.70
2019-01-27T10:14:37.494Z,1.00
2019-01-27T10:17:24.443Z,1.00
2019-01-27T10:20:18.584Z,1.17
2019-01-27T10:23:00.099Z,0.90
2019-01-27T10:25:46.554Z,0.83
2019-01-27T10:28:29.466Z,0.63
2019-01-27T10:31:18.590Z,1.20
2019-01-27T10:34:08.470Z,1.23
2019-01-27T10:37:11.854Z,1.27
2019-01-27T10:39:49.974Z,1.00
2019-01-27T10:42:41.206Z,0.80
2019-01-27T10:45:28.226Z,0.70
2019-01-27T10:48:19.231Z,1.37
2019-01-27T10:51:01.953Z,0.60
2019-01-27T10:53:49.979Z,0.90
2019-01-27T10:56:40.730Z,1.53
2019-01-27T10:59:31.587Z,2.73
2019-01-27T11:02:19.468Z,1.10
2019-01-27T11:05:07.513Z,2.40
2019-01-27T11:07:46.935Z,1.53
2019-01-27T11:10:30.270Z,1.30
2019-01-27T11:13:21.330Z,1.20
2019-01-27T11:16:15.374Z,1.30
2019-01-27T11:19:03.918Z,1.70
2019-01-27T11:21:54.670Z,0.70
2019-01-27T11:24:41.540Z,1.50
2019-01-27T11:27:23.258Z,2.60
2019-01-27T11:30:10.195Z,2.63
2019-01-27T11:33:10.230Z,1.00
2019-01-27T11:35:58.441Z,2.33
2019-01-27T11:38:39.411Z,2.30
2019-01-27T11:41:26.254Z,1.43
2019-01-27T11:44:17.482Z,1.97
2019-01-27T11:47:00.118Z,2.17
2019-01-27T11:49:48.012Z,4.63
2019-01-27T11:52:21.402Z,1.67
2019-01-27T11:54:50.447Z,1.30
2019-01-27T11:57:19.470Z,1.83
2019-01-27T11:59:48.527Z,1.87
2019-01-27T12:02:17.497Z,2.07
2019-01-27T12:04:46.723Z,1.30
2019-01-27T12:07:15.875Z,1.67
2019-01-27T12:09:44.819Z,1.90
2019-01-27T12:12:13.823Z,2.03
2019-01-27T12:14:42.622Z,1.83
2019-01-27T12:17:11.583Z,3.87
2019-01-27T12:19:40.503Z,1.90
2019-01-27T12:22:09.537Z,2.63
2019-01-27T12:24:38.427Z,1.27
2019-01-27T12:27:07.546Z,1.43
2019-01-27T12:29:36.610Z,1.50
2019-01-27T12:32:05.711Z,1.67
2019-01-27T12:34:34.747Z,2.47
2019-01-27T12:37:03.999Z,1.80
2019-01-27T12:39:36.277Z,2.07
2019-01-27T12:42:05.425Z,1.73
2019-01-27T12:44:34.343Z,2.77
2019-01-27T12:47:03.274Z,2.80
2019-01-27T12:49:32.270Z,1.20
2019-01-27T12:52:01.172Z,1.97
2019-01-27T12:54:30.356Z,2.20
2019-01-27T12:56:59.247Z,2.17
2019-01-27T12:59:28.254Z,2.97
2019-01-27T13:01:57.418Z,2.27
2019-01-27T13:04:27.510Z,1.20
2019-01-27T13:06:56.583Z,1.40
2019-01-27T13:09:25.623Z,1.50
2019-01-27T13:11:54.558Z,1.70
2019-01-27T13:14:23.658Z,1.80
2019-01-27T13:16:52.619Z,1.93
2019-01-27T13:19:21.528Z,3.30
2019-01-27T13:21:50.526Z,1.70
2019-01-27T13:24:19.634Z,2.57
2019-01-27T13:26:48.674Z,2.60
2019-01-27T13:29:17.587Z,2.73
2019-01-27T13:31:46.580Z,2.50
2019-01-27T13:34:15.567Z,2.47
2019-01-27T13:36:44.639Z,2.20
2019-01-27T13:39:13.670Z,1.43
2019-01-27T13:41:42.634Z,2.57
2019-01-27T13:44:11.623Z,1.57
2019-01-27T13:46:40.636Z,2.50
2019-01-27T13:49:09.820Z,2.70
2019-01-27T13:51:38.898Z,2.13
2019-01-27T13:54:07.878Z,3.53
2019-01-27T13:56:36.959Z,2.13
2019-01-27T14:03:20.129Z,1.73
2019-01-27T14:05:52.367Z,3.83
2019-01-27T14:09:27.869Z,3.67
2019-01-27T14:13:18.345Z,2.30
2019-01-27T14:30:03.999Z,1.70
2019-01-27T14:32:32.941Z,2.83
2019-01-27T14:35:02.047Z,2.47
2019-01-27T14:37:31.162Z,1.83
2019-01-27T14:40:00.239Z,2.87
2019-01-27T14:42:29.338Z,2.30
2019-01-27T14:44:58.346Z,2.13
2019-01-27T14:47:27.468Z,2.50
2019-01-27T14:49:56.455Z,2.33
2019-01-27T14:52:25.523Z,2.37
2019-01-27T14:54:54.577Z,2.50
2019-01-27T14:57:23.657Z,2.67
2019-01-27T14:59:52.651Z,1.60
2019-01-27T15:02:21.642Z,2.50
2019-01-27T15:04:50.530Z,2.20
2019-01-27T15:07:19.531Z,2.00
2019-01-27T15:09:48.506Z,1.70
2019-01-27T15:12:17.558Z,2.33
2019-01-27T15:14:46.574Z,2.67
2019-01-27T15:17:15.454Z,2.67
2019-01-27T15:19:44.478Z,2.43
2019-01-27T15:22:13.378Z,2.77
2019-01-27T15:24:42.459Z,3.50
2019-01-27T15:27:11.582Z,2.33
2019-01-27T15:29:40.522Z,2.97
2019-01-27T15:32:09.547Z,2.57
2019-01-27T15:34:38.492Z,2.13
2019-01-27T15:37:07.462Z,1.90
2019-01-27T15:39:36.347Z,2.57
2019-01-27T15:42:05.397Z,2.40
2019-01-27T15:44:34.293Z,2.67
2019-01-27T15:47:03.376Z,3.27
2019-01-27T15:49:32.436Z,4.10
2019-01-27T15:52:01.452Z,3.23
2019-01-27T15:54:30.532Z,2.90
2019-01-27T15:56:59.472Z,2.90
2019-01-27T15:59:28.550Z,4.23
2019-01-27T16:01:57.506Z,3.57
2019-01-27T16:04:26.514Z,3.70
2019-01-27T16:06:55.446Z,6.50
2019-01-27T16:09:24.282Z,4.10
2019-01-27T16:11:53.555Z,5.20
2019-01-27T16:14:22.756Z,4.33
2019-01-27T16:16:51.825Z,4.30
2019-01-27T16:19:20.957Z,5.37
2019-01-27T16:21:49.944Z,4.90
2019-01-27T16:24:31.359Z,4.80
2019-01-27T16:27:00.335Z,5.20
2019-01-27T16:29:46.855Z,6.23
2019-01-27T16:32:21.378Z,5.33
2019-01-27T16:34:58.077Z,5.10
2019-01-27T16:37:27.251Z,6.63
2019-01-27T16:39:56.155Z,6.67
2019-01-27T16:42:25.024Z,5.97
2019-01-27T16:44:53.855Z,5.00
2019-01-27T16:47:22.795Z,5.83
2019-01-27T16:49:51.887Z,6.03
2019-01-27T16:52:40.155Z,6.83
2019-01-27T16:55:11.616Z,6.63
2019-01-27T16:57:40.840Z,7.83
2019-01-27T17:00:14.854Z,8.13
2019-01-27T17:02:44.090Z,8.63
2019-01-27T17:05:14.415Z,9.63
2019-01-27T17:07:43.484Z,9.70
2019-01-27T17:10:13.034Z,11.90
2019-01-27T17:12:42.218Z,10.87
2019-01-27T17:15:12.021Z,10.63
2019-01-27T17:17:43.436Z,12.37
2019-01-27T17:20:14.266Z,12.80
2019-01-27T17:22:43.412Z,12.20
2019-01-27T17:25:13.003Z,13.50
2019-01-27T17:27:42.256Z,14.90
2019-01-27T17:30:14.578Z,15.73
2019-01-27T17:32:43.804Z,15.17
2019-01-27T17:35:14.074Z,13.97
2019-01-27T17:37:43.086Z,14.57
2019-01-27T17:40:13.517Z,14.20
2019-01-27T17:42:42.765Z,17.07
2019-01-27T17:45:14.457Z,15.30
2019-01-27T17:47:43.498Z,16.27
2019-01-27T17:50:14.431Z,19.57
2019-01-27T17:52:43.557Z,18.40
2019-01-27T17:55:33.529Z,20.53
2019-01-27T17:58:08.108Z,20.47
2019-01-27T18:00:54.851Z,19.50
2019-01-27T18:03:49.078Z,17.57
2019-01-27T18:06:23.427Z,12.90
2019-01-27T18:09:02.415Z,8.80
2019-01-27T18:11:57.383Z,7.03
2019-01-27T18:14:30.922Z,6.57
2019-01-27T18:17:01.240Z,6.70
2019-01-27T18:19:32.326Z,6.23
2019-01-27T18:22:04.695Z,6.07
2019-01-27T18:24:35.768Z,5.07
2019-01-27T18:27:06.863Z,6.03
2019-01-27T18:29:38.283Z,6.90
2019-01-27T18:32:08.240Z,3.37
2019-01-27T18:34:40.594Z,8.17
2019-01-27T18:37:30.111Z,5.50
2019-01-27T18:40:00.771Z,9.17
2019-01-27T18:42:30.303Z,6.03
2019-01-27T18:44:59.866Z,9.07
2019-01-27T18:47:29.164Z,7.47
2019-01-27T18:49:58.134Z,6.73
2019-01-27T18:52:31.351Z,7.73
2019-01-27T18:55:34.995Z,3.90
2019-01-27T18:58:17.039Z,6.63
2019-01-27T19:00:54.615Z,6.83
2019-01-27T19:03:29.852Z,6.00
2019-01-27T19:06:07.063Z,9.03
2019-01-27T19:09:01.074Z,6.90
2019-01-27T19:11:53.492Z,7.43
2019-01-27T19:14:41.749Z,5.10
2019-01-27T19:17:28.631Z,6.37
2019-01-27T19:20:15.385Z,8.73
2019-01-27T19:22:55.733Z,7.80
2019-01-27T19:25:35.350Z,12.93
2019-01-27T19:28:26.468Z,10.47
2019-01-27T19:31:02.975Z,12.57
2019-01-27T19:33:54.260Z,10.53
2019-01-27T19:36:29.967Z,7.87
2019-01-27T19:39:07.851Z,11.37
2019-01-27T19:42:01.912Z,9.03
2019-01-27T19:44:55.875Z,12.90
2019-01-27T19:47:34.414Z,8.97
2019-01-27T19:50:30.752Z,12.90
2019-01-27T19:53:30.875Z,10.47
2019-01-27T19:56:17.324Z,10.93
2019-01-27T19:58:58.851Z,6.40
2019-01-27T20:01:56.846Z,11.33
2019-01-27T20:04:33.071Z,9.53
2019-01-27T20:07:21.190Z,9.17
2019-01-27T20:10:00.660Z,10.00
2019-01-27T20:12:47.077Z,8.50
2019-01-27T20:15:35.091Z,11.60
2019-01-27T20:18:22.062Z,9.77
2019-01-27T20:20:59.964Z,11.57
2019-01-27T20:23:46.842Z,12.57
2019-01-27T20:26:35.059Z,11.60
2019-01-27T20:29:21.084Z,14.70
2019-01-27T20:32:07.632Z,11.03
2019-01-27T20:34:58.507Z,12.77
2019-01-27T20:37:50.238Z,15.30
2019-01-27T20:40:37.039Z,11.60
2019-01-27T20:43:24.111Z,11.37
2019-01-27T20:45:58.386Z,14.30
2019-01-27T20:48:39.832Z,15.43
2019-01-27T20:51:28.754Z,13.33
2019-01-27T20:54:21.425Z,15.73
2019-01-27T20:57:12.699Z,7.77
2019-01-27T20:59:59.470Z,13.33
2019-01-27T21:02:41.955Z,13.17
2019-01-27T21:05:16.664Z,10.93
2019-01-27T21:08:04.735Z,12.13
2019-01-27T21:10:43.129Z,16.33
2019-01-27T21:13:43.232Z,7.20
2019-01-27T21:16:31.311Z,13.50
2019-01-27T21:19:22.071Z,13.63
2019-01-27T21:21:51.020Z,12.17
2019-01-27T21:24:20.071Z,11.07
2019-01-27T21:26:49.357Z,11.97
2019-01-27T21:29:18.443Z,10.77
2019-01-27T21:31:47.394Z,11.47
2019-01-27T21:34:16.455Z,10.43
2019-01-27T21:36:45.414Z,11.60
2019-01-27T21:39:14.406Z,14.43
2019-01-27T21:41:43.632Z,12.50
2019-01-27T21:44:12.742Z,13.67
2019-01-27T21:46:41.797Z,13.90
2019-01-27T21:49:10.748Z,13.13
2019-01-27T21:51:39.753Z,15.27
2019-01-27T21:54:08.700Z,13.27
2019-01-27T21:56:37.670Z,11.60
2019-01-27T21:59:06.663Z,9.17
2019-01-27T22:01:35.770Z,8.60
2019-01-27T22:04:05.097Z,9.70
2019-01-27T22:06:34.170Z,12.30
2019-01-27T22:09:05.099Z,10.97
2019-01-27T22:11:34.192Z,9.87
2019-01-27T22:14:03.210Z,14.67
2019-01-27T22:16:32.263Z,5.00
2019-01-27T22:19:01.211Z,12.33
2019-01-27T22:21:30.344Z,10.60
2019-01-27T22:23:59.363Z,14.13
2019-01-27T22:26:28.422Z,12.80
2019-01-27T22:28:57.459Z,10.00
2019-01-27T22:31:26.437Z,11.80
2019-01-27T22:33:55.390Z,9.40
2019-01-27T22:36:24.339Z,11.90
2019-01-27T22:38:53.402Z,12.90
2019-01-27T22:41:22.460Z,10.57
2019-01-27T22:43:51.446Z,10.70
2019-01-27T22:46:20.524Z,13.27
2019-01-27T22:48:49.514Z,10.10
2019-01-27T22:51:18.573Z,12.30
2019-01-27T22:53:47.587Z,10.00
2019-01-27T22:56:16.490Z,15.60
2019-01-27T22:58:45.415Z,12.67
2019-01-27T23:01:16.748Z,16.97
2019-01-27T23:03:47.665Z,11.67
2019-01-27T23:06:16.649Z,11.43
2019-01-27T23:08:45.610Z,14.13
2019-01-27T23:11:14.597Z,13.93
2019-01-27T23:13:43.591Z,15.53
2019-01-27T23:16:12.490Z,15.53
2019-01-27T23:18:41.545Z,18.00
2019-01-27T23:21:10.582Z,13.93
2019-01-27T23:23:39.618Z,12.37
2019-01-27T23:26:08.658Z,15.40
2019-01-27T23:28:37.631Z,14.37
2019-01-27T23:31:06.638Z,13.90
2019-01-27T23:33:35.509Z,16.10
2019-01-27T23:36:04.599Z,14.43
2019-01-27T23:38:33.404Z,12.33
2019-01-27T23:41:02.414Z,14.03
2019-01-27T23:43:31.241Z,23.60
2019-01-27T23:46:00.183Z,14.70
2019-01-27T23:48:29.208Z,16.60
2019-01-27T23:50:58.132Z,14.13
2019-01-27T23:53:27.142Z,16.30
2019-01-27T23:55:56.042Z,17.70
2019-01-27T23:58:25.030Z,18.20
